Time;durP1;ratioP1;P1;durP2;ratioP2;P2;SDS_P1;SDS_P2;PMS_P1;PMS_P2;Temp;Humidity;BMP_temperature;BMP_pressure;BME280_temperature;BME280_humidity;BME280_pressure;Samples;Min_cycle;Max_cycle;Signal;HPM_P1;HPM_P2
2023/04/17 00:02:45;;;;;;;20.27;12.73;;;;;;;;;;5052663;28;20032;-69
2023/04/17 00:05:32;;;;;;;16.92;10.57;;;;;;;;;;5057732;28;20024;-70
2023/04/17 00:08:17;;;;;;;15.25;10.20;;;;;;;;;;5070908;28;20039;-77
2023/04/17 00:11:02;;;;;;;15.50;11.07;;;;;;;;;;5071974;28;20048;-73
2023/04/17 00:13:48;;;;;;;18.48;11.65;;;;;;;;;;5083599;28;20501;-77
2023/04/17 00:16:33;;;;;;;14.65;10.23;;;;;;;;;;5067388;28;20055;-77
2023/04/17 00:19:18;;;;;;;15.30;11.05;;;;;;;;;;5068352;28;20107;-77
2023/04/17 00:22:04;;;;;;;19.23;12.52;;;;;;;;;;5077102;28;20029;-76
2023/04/17 00:24:49;;;;;;;17.65;11.15;;;;;;;;;;5066476;28;20431;-76
2023/04/17 00:27:34;;;;;;;16.20;11.05;;;;;;;;;;5066521;28;20064;-71
2023/04/17 00:30:19;;;;;;;16.95;11.07;;;;;;;;;;5064744;28;20036;-77
2023/04/17 00:33:05;;;;;;;16.38;11.13;;;;;;;;;;5064889;28;20024;-76
2023/04/17 00:35:50;;;;;;;17.85;11.55;;;;;;;;;;5079736;28;20034;-79
2023/04/17 00:38:36;;;;;;;14.20;10.63;;;;;;;;;;5067495;28;20024;-75
2023/04/17 00:41:21;;;;;;;18.90;11.98;;;;;;;;;;5085535;28;20586;-75
2023/04/17 00:44:06;;;;;;;18.60;10.48;;;;;;;;;;5070343;28;20031;-75
2023/04/17 00:46:51;;;;;;;15.63;10.85;;;;;;;;;;5091032;28;20040;-76
2023/04/17 00:49:37;;;;;;;16.08;11.23;;;;;;;;;;5070553;28;20530;-70
2023/04/17 00:52:28;;;;;;;17.60;11.98;;;;;;;;;;5071912;28;20354;-71
2023/04/17 00:55:14;;;;;;;19.15;10.95;;;;;;;;;;5072927;28;20033;-72
2023/04/17 00:57:59;;;;;;;18.27;11.07;;;;;;;;;;5067684;28;20040;-71
2023/04/17 01:00:45;;;;;;;15.85;10.25;;;;;;;;;;5068315;28;20028;-71
2023/04/17 01:03:31;;;;;;;14.18;9.23;;;;;;;;;;5086009;28;20050;-71
2023/04/17 01:06:16;;;;;;;16.67;10.98;;;;;;;;;;5068499;28;20199;-70
2023/04/17 01:09:01;;;;;;;17.75;11.35;;;;;;;;;;5060368;28;20687;-72
2023/04/17 01:11:47;;;;;;;16.65;11.65;;;;;;;;;;5083569;28;20024;-72
2023/04/17 01:14:32;;;;;;;16.73;10.50;;;;;;;;;;5073541;28;20097;-70
2023/04/17 01:17:20;;;;;;;20.25;11.50;;;;;;;;;;5068947;28;20033;-70
2023/04/17 01:20:08;;;;;;;17.45;11.27;;;;;;;;;;5064648;28;20032;-71
2023/04/17 01:22:53;;;;;;;14.95;9.60;;;;;;;;;;5080575;28;20035;-74
2023/04/17 01:25:38;;;;;;;18.38;10.93;;;;;;;;;;5066577;28;20549;-71
2023/04/17 01:28:23;;;;;;;14.75;9.80;;;;;;;;;;5069409;28;20029;-71
2023/04/17 01:31:13;;;;;;;16.30;10.65;;;;;;;;;;5075134;28;20115;-71
2023/04/17 01:33:59;;;;;;;15.35;10.73;;;;;;;;;;5059154;28;20032;-71
2023/04/17 01:36:45;;;;;;;15.10;10.68;;;;;;;;;;5067734;28;20483;-71
2023/04/17 01:39:30;;;;;;;17.65;11.82;;;;;;;;;;5067521;28;20169;-70
2023/04/17 01:42:15;;;;;;;18.65;10.73;;;;;;;;;;5048976;28;20021;-70
2023/04/17 01:45:01;;;;;;;17.27;11.15;;;;;;;;;;5077333;28;20158;-73
2023/04/17 01:47:46;;;;;;;21.90;11.40;;;;;;;;;;5097162;28;20047;-70
2023/04/17 01:50:31;;;;;;;18.35;11.35;;;;;;;;;;5068372;28;20020;-72
2023/04/17 01:53:16;;;;;;;15.40;10.32;;;;;;;;;;5074563;28;20402;-72
2023/04/17 01:56:01;;;;;;;17.38;10.57;;;;;;;;;;5069530;28;20059;-73
2023/04/17 01:58:47;;;;;;;17.50;11.98;;;;;;;;;;5056287;28;20459;-77
2023/04/17 02:01:32;;;;;;;15.50;11.20;;;;;;;;;;5071515;28;20040;-71
2023/04/17 02:04:17;;;;;;;15.43;10.23;;;;;;;;;;5073070;28;20029;-70
2023/04/17 02:07:02;;;;;;;17.05;12.38;;;;;;;;;;5066547;28;20027;-70
2023/04/17 02:09:48;;;;;;;14.60;10.32;;;;;;;;;;5068446;28;20021;-70
2023/04/17 02:12:33;;;;;;;17.52;11.73;;;;;;;;;;5063547;28;20479;-69
2023/04/17 02:15:18;;;;;;;16.00;10.35;;;;;;;;;;5084889;28;21848;-70
2023/04/17 02:18:04;;;;;;;16.30;10.32;;;;;;;;;;5071709;28;20032;-69
2023/04/17 02:20:50;;;;;;;16.95;11.45;;;;;;;;;;5059861;28;20029;-70
2023/04/17 02:23:35;;;;;;;16.80;11.02;;;;;;;;;;5071360;28;20032;-70
2023/04/17 02:26:20;;;;;;;16.05;11.02;;;;;;;;;;5076613;28;20028;-71
2023/04/17 02:29:05;;;;;;;17.63;11.32;;;;;;;;;;5065508;28;20036;-69
2023/04/17 02:31:51;;;;;;;15.88;10.52;;;;;;;;;;5056034;28;20029;-70
2023/04/17 02:34:36;;;;;;;16.02;10.52;;;;;;;;;;5066957;28;20036;-70
2023/04/17 02:37:21;;;;;;;19.38;12.13;;;;;;;;;;5070865;28;20027;-69
2023/04/17 02:40:08;;;;;;;17.55;10.82;;;;;;;;;;5062537;28;20585;-70
2023/04/17 02:42:53;;;;;;;16.50;11.20;;;;;;;;;;5080302;28;20032;-70
2023/04/17 02:45:38;;;;;;;17.35;12.63;;;;;;;;;;5075525;28;20500;-70
2023/04/17 02:48:27;;;;;;;15.93;10.82;;;;;;;;;;5064756;28;20048;-69
2023/04/17 02:51:12;;;;;;;17.75;11.80;;;;;;;;;;5082843;28;20043;-69
2023/04/17 02:53:57;;;;;;;18.35;12.40;;;;;;;;;;5074837;28;20029;-70
2023/04/17 02:56:43;;;;;;;17.33;10.70;;;;;;;;;;5069273;28;20032;-74
2023/04/17 02:59:28;;;;;;;18.35;10.80;;;;;;;;;;5071211;28;20122;-74
2023/04/17 03:02:13;;;;;;;16.52;12.23;;;;;;;;;;5068755;28;20020;-74
2023/04/17 03:05:00;;;;;;;18.33;12.65;;;;;;;;;;5067335;28;20111;-74
2023/04/17 03:07:46;;;;;;;18.88;11.80;;;;;;;;;;5077556;28;20036;-74
2023/04/17 03:10:31;;;;;;;15.60;11.18;;;;;;;;;;5074660;28;20502;-74
2023/04/17 03:13:16;;;;;;;16.95;11.48;;;;;;;;;;5067540;28;20099;-69
2023/04/17 03:16:03;;;;;;;17.92;11.13;;;;;;;;;;5066229;28;20020;-75
2023/04/17 03:18:48;;;;;;;15.23;10.82;;;;;;;;;;5074152;28;20019;-74
2023/04/17 03:21:33;;;;;;;16.83;11.20;;;;;;;;;;5066251;28;20032;-74
2023/04/17 03:24:19;;;;;;;17.58;11.20;;;;;;;;;;5073618;28;20028;-76
2023/04/17 03:27:04;;;;;;;18.58;12.13;;;;;;;;;;5073095;28;20028;-75
2023/04/17 03:29:50;;;;;;;15.90;10.65;;;;;;;;;;5077076;28;20267;-74
2023/04/17 03:32:36;;;;;;;17.95;12.07;;;;;;;;;;5062749;28;20122;-70
2023/04/17 03:35:22;;;;;;;16.77;11.20;;;;;;;;;;5079512;28;20024;-70
2023/04/17 03:38:07;;;;;;;17.02;11.55;;;;;;;;;;5070789;28;20679;-70
2023/04/17 03:40:52;;;;;;;19.75;12.20;;;;;;;;;;5081424;28;20497;-70
2023/04/17 03:43:37;;;;;;;21.30;13.02;;;;;;;;;;5053860;28;20051;-70
2023/04/17 03:46:23;;;;;;;17.92;11.70;;;;;;;;;;5074102;28;20066;-70
2023/04/17 03:49:08;;;;;;;17.42;11.63;;;;;;;;;;5055148;28;20491;-76
2023/04/17 03:51:53;;;;;;;16.95;11.90;;;;;;;;;;5069997;28;20479;-73
2023/04/17 03:54:38;;;;;;;17.15;11.02;;;;;;;;;;5081203;28;20040;-75
2023/04/17 03:57:24;;;;;;;16.60;11.30;;;;;;;;;;5060151;28;20033;-74
2023/04/17 04:00:09;;;;;;;14.93;10.68;;;;;;;;;;5065043;28;20028;-74
2023/04/17 04:02:55;;;;;;;20.05;12.32;;;;;;;;;;5077754;28;20047;-74
2023/04/17 04:05:40;;;;;;;17.33;11.70;;;;;;;;;;5065808;28;20286;-75
2023/04/17 04:08:25;;;;;;;18.48;11.35;;;;;;;;;;5065192;28;20039;-69
2023/04/17 04:11:10;;;;;;;16.05;10.57;;;;;;;;;;5065345;28;20567;-75
2023/04/17 04:13:56;;;;;;;17.77;11.88;;;;;;;;;;5064865;28;20048;-77
2023/04/17 04:16:41;;;;;;;17.70;11.35;;;;;;;;;;5065752;28;20547;-74
2023/04/17 04:19:26;;;;;;;16.02;11.38;;;;;;;;;;5065185;28;20031;-76
2023/04/17 04:22:12;;;;;;;17.08;10.80;;;;;;;;;;5065318;28;20044;-76
2023/04/17 04:24:58;;;;;;;17.13;11.20;;;;;;;;;;5064057;28;20032;-75
2023/04/17 04:27:48;;;;;;;17.05;10.45;;;;;;;;;;5066497;28;20040;-73
2023/04/17 04:30:37;;;;;;;17.05;11.45;;;;;;;;;;5067430;28;20024;-69
2023/04/17 04:33:22;;;;;;;16.08;11.05;;;;;;;;;;5059468;28;20028;-72
2023/04/17 04:36:08;;;;;;;16.02;11.07;;;;;;;;;;5069995;28;20779;-71
2023/04/17 04:38:57;;;;;;;18.23;12.07;;;;;;;;;;5066854;28;20021;-69
2023/04/17 04:41:45;;;;;;;16.13;10.75;;;;;;;;;;5067921;28;20491;-69
2023/04/17 04:44:30;;;;;;;18.40;11.90;;;;;;;;;;5054251;28;20048;-74
2023/04/17 04:47:15;;;;;;;16.20;10.23;;;;;;;;;;5071636;28;20040;-78
2023/04/17 04:50:02;;;;;;;15.55;10.32;;;;;;;;;;5069168;28;20037;-77
2023/04/17 04:52:47;;;;;;;17.08;11.05;;;;;;;;;;5081367;28;20036;-78
2023/04/17 04:55:32;;;;;;;18.73;11.50;;;;;;;;;;5083530;28;20028;-77
2023/04/17 04:58:17;;;;;;;17.55;10.65;;;;;;;;;;5082251;28;20028;-77
2023/04/17 05:01:03;;;;;;;18.58;11.20;;;;;;;;;;5068638;28;20408;-78
2023/04/17 05:03:49;;;;;;;17.60;12.07;;;;;;;;;;5054588;28;20021;-70
2023/04/17 05:06:34;;;;;;;16.90;11.52;;;;;;;;;;5067941;28;20054;-77
2023/04/17 05:09:19;;;;;;;17.65;11.77;;;;;;;;;;5072151;28;20067;-75
2023/04/17 05:12:05;;;;;;;18.50;11.25;;;;;;;;;;5064048;28;20063;-75
2023/04/17 05:14:50;;;;;;;15.35;10.52;;;;;;;;;;5073946;28;20094;-75
2023/04/17 05:17:36;;;;;;;19.50;10.90;;;;;;;;;;5056342;28;20103;-75
2023/04/17 05:20:22;;;;;;;16.85;11.40;;;;;;;;;;5054186;28;20112;-76
2023/04/17 05:23:07;;;;;;;15.98;10.20;;;;;;;;;;5067694;28;20043;-69
2023/04/17 05:25:52;;;;;;;17.20;10.98;;;;;;;;;;5071224;22;20052;-73
2023/04/17 05:28:37;;;;;;;18.52;12.48;;;;;;;;;;5047466;28;20049;-72
2023/04/17 05:31:23;;;;;;;17.00;11.20;;;;;;;;;;5037750;28;20021;-72
2023/04/17 05:34:08;;;;;;;18.23;10.35;;;;;;;;;;5047139;28;20234;-72
2023/04/17 05:36:53;;;;;;;15.95;10.27;;;;;;;;;;5038223;28;20047;-72
2023/04/17 05:39:39;;;;;;;22.13;13.23;;;;;;;;;;5042476;28;20391;-77
2023/04/17 05:42:24;;;;;;;18.17;12.00;;;;;;;;;;5036559;28;20027;-73
2023/04/17 05:45:13;;;;;;;15.68;11.10;;;;;;;;;;5053007;28;20111;-74
2023/04/17 05:47:58;;;;;;;17.60;10.93;;;;;;;;;;5040774;28;20090;-73
2023/04/17 05:50:44;;;;;;;16.25;10.63;;;;;;;;;;5046690;28;20040;-72
2023/04/17 05:53:30;;;;;;;19.73;11.80;;;;;;;;;;5050704;28;20045;-74
2023/04/17 05:56:15;;;;;;;16.92;10.95;;;;;;;;;;5049144;28;20502;-74
2023/04/17 05:59:01;;;;;;;17.70;11.73;;;;;;;;;;5037098;28;20074;-79
2023/04/17 06:01:46;;;;;;;15.50;9.90;;;;;;;;;;5050719;28;20444;-74
2023/04/17 06:04:31;;;;;;;16.02;10.50;;;;;;;;;;5050373;28;20028;-74
2023/04/17 06:07:16;;;;;;;15.02;10.20;;;;;;;;;;5050222;28;20066;-74
2023/04/17 06:10:02;;;;;;;15.75;10.75;;;;;;;;;;5049250;28;20114;-74
2023/04/17 06:12:47;;;;;;;18.92;11.38;;;;;;;;;;5049883;28;20044;-73
2023/04/17 06:15:32;;;;;;;15.15;9.73;;;;;;;;;;5050643;28;20033;-73
2023/04/17 06:18:17;;;;;;;15.77;10.85;;;;;;;;;;5050904;28;20121;-78
2023/04/17 06:21:03;;;;;;;19.35;12.10;;;;;;;;;;5049631;28;20025;-72
2023/04/17 06:23:48;;;;;;;16.27;11.25;;;;;;;;;;5036591;28;20029;-73
2023/04/17 06:26:34;;;;;;;15.63;10.52;;;;;;;;;;5044695;28;20045;-73
2023/04/17 06:29:19;;;;;;;16.77;11.65;;;;;;;;;;5048886;28;20526;-73
2023/04/17 06:32:05;;;;;;;15.85;10.88;;;;;;;;;;5026111;28;20112;-73
2023/04/17 06:34:50;;;;;;;18.90;11.45;;;;;;;;;;5036352;28;20025;-74
2023/04/17 06:37:35;;;;;;;14.80;11.35;;;;;;;;;;5037430;28;20025;-73
2023/04/17 06:40:21;;;;;;;18.65;11.73;;;;;;;;;;5015181;28;20036;-72
2023/04/17 06:43:06;;;;;;;13.55;10.07;;;;;;;;;;5035521;28;20241;-73
2023/04/17 06:45:51;;;;;;;15.65;10.52;;;;;;;;;;5021522;28;20468;-71
2023/04/17 06:48:37;;;;;;;16.35;10.27;;;;;;;;;;5020219;28;20033;-72
2023/04/17 06:51:24;;;;;;;13.90;9.35;;;;;;;;;;5044028;28;20411;-72
2023/04/17 06:54:09;;;;;;;15.27;10.27;;;;;;;;;;5035460;28;20022;-79
2023/04/17 06:56:55;;;;;;;16.80;11.18;;;;;;;;;;5032694;28;20032;-78
2023/04/17 06:59:40;;;;;;;17.48;10.70;;;;;;;;;;5040463;28;20519;-79
2023/04/17 07:02:26;;;;;;;17.55;10.20;;;;;;;;;;5025515;28;20021;-80
2023/04/17 07:05:12;;;;;;;14.77;9.52;;;;;;;;;;5044173;28;20032;-79
2023/04/17 07:07:57;;;;;;;15.73;10.15;;;;;;;;;;5044455;28;20084;-79
2023/04/17 07:10:42;;;;;;;15.13;10.20;;;;;;;;;;5026567;28;20999;-80
2023/04/17 07:13:31;;;;;;;17.13;12.13;;;;;;;;;;5049342;28;20025;-72
2023/04/17 07:16:17;;;;;;;15.07;10.15;;;;;;;;;;5013079;28;20036;-73
2023/04/17 07:19:02;;;;;;;17.33;10.63;;;;;;;;;;5031981;28;20033;-74
2023/04/17 07:21:47;;;;;;;15.05;9.50;;;;;;;;;;5048620;28;20060;-74
2023/04/17 07:24:33;;;;;;;15.23;9.70;;;;;;;;;;5028172;28;20042;-74
2023/04/17 07:27:19;;;;;;;13.80;10.07;;;;;;;;;;5045436;28;20489;-73
2023/04/17 07:30:06;;;;;;;16.27;10.65;;;;;;;;;;5036520;28;20487;-71
2023/04/17 07:32:51;;;;;;;14.75;9.55;;;;;;;;;;5009577;28;20041;-74
2023/04/17 07:35:36;;;;;;;17.42;10.85;;;;;;;;;;5049550;28;20025;-75
2023/04/17 07:38:23;;;;;;;16.33;11.13;;;;;;;;;;5036056;28;20379;-75
2023/04/17 07:41:08;;;;;;;15.73;10.10;;;;;;;;;;5032892;28;20026;-75
2023/04/17 07:43:53;;;;;;;14.52;10.30;;;;;;;;;;5035949;28;20055;-75
2023/04/17 07:46:40;;;;;;;15.40;10.60;;;;;;;;;;5030957;28;20017;-76
2023/04/17 07:49:25;;;;;;;14.02;9.27;;;;;;;;;;5025709;28;20033;-72
2023/04/17 07:52:10;;;;;;;15.05;9.60;;;;;;;;;;5022285;28;20031;-73
2023/04/17 07:54:55;;;;;;;14.48;9.25;;;;;;;;;;5018248;28;20300;-74
2023/04/17 07:57:45;;;;;;;16.58;10.85;;;;;;;;;;5048579;28;20074;-74
2023/04/17 08:00:31;;;;;;;;;;;;;;;;;;5024827;28;20110;-74
2023/04/17 08:03:16;;;;;;;14.90;9.00;;;;;;;;;;5038456;28;19909;-75
2023/04/17 08:06:01;;;;;;;15.05;9.27;;;;;;;;;;5034556;28;20125;-73
2023/04/17 08:08:47;;;;;;;14.23;9.88;;;;;;;;;;5025581;28;20048;-83
2023/04/17 08:11:32;;;;;;;12.07;8.57;;;;;;;;;;5008954;28;20030;-80
2023/04/17 08:14:19;;;;;;;12.77;8.43;;;;;;;;;;5002139;28;20036;-80
2023/04/17 08:17:06;;;;;;;12.20;7.43;;;;;;;;;;5045291;28;20028;-80
2023/04/17 08:19:57;;;;;;;12.82;8.05;;;;;;;;;;5026041;28;20094;-79
2023/04/17 08:22:44;;;;;;;14.20;9.18;;;;;;;;;;5009075;28;20679;-83
2023/04/17 08:25:29;;;;;;;12.82;8.13;;;;;;;;;;5018705;28;20046;-73
2023/04/17 08:28:15;;;;;;;12.23;8.45;;;;;;;;;;5027667;28;20037;-75
2023/04/17 08:31:00;;;;;;;10.95;7.43;;;;;;;;;;5035271;28;20027;-74
2023/04/17 08:33:45;;;;;;;14.85;8.57;;;;;;;;;;5048095;28;20025;-75
2023/04/17 08:36:31;;;;;;;11.45;7.97;;;;;;;;;;5028995;28;20026;-75
2023/04/17 08:39:17;;;;;;;12.10;8.02;;;;;;;;;;5010126;28;20476;-77
2023/04/17 08:42:06;;;;;;;10.98;6.90;;;;;;;;;;5014788;28;20502;-75
2023/04/17 08:44:52;;;;;;;15.25;9.23;;;;;;;;;;5031634;28;20025;-73
2023/04/17 08:47:37;;;;;;;12.13;7.97;;;;;;;;;;5027314;28;20167;-80
2023/04/17 08:50:23;;;;;;;12.20;7.85;;;;;;;;;;5005695;28;20033;-78
2023/04/17 08:53:08;;;;;;;12.02;7.18;;;;;;;;;;5044302;28;20024;-78
2023/04/17 08:55:53;;;;;;;12.15;7.35;;;;;;;;;;5044046;28;20040;-78
2023/04/17 08:58:38;;;;;;;11.38;6.88;;;;;;;;;;5047255;28;20029;-77
2023/04/17 09:01:24;;;;;;;13.25;7.72;;;;;;;;;;5037185;28;20039;-71
2023/04/17 09:04:10;;;;;;;9.27;5.68;;;;;;;;;;5024992;28;20407;-70
2023/04/17 09:06:56;;;;;;;10.63;6.38;;;;;;;;;;5033588;28;20025;-73
2023/04/17 09:09:45;;;;;;;11.07;6.90;;;;;;;;;;5022160;28;20120;-72
2023/04/17 09:12:30;;;;;;;12.38;6.85;;;;;;;;;;5016109;28;20511;-72
2023/04/17 09:15:16;;;;;;;11.45;6.22;;;;;;;;;;5037178;28;20041;-73
2023/04/17 09:18:01;;;;;;;10.63;6.57;;;;;;;;;;5047542;28;20597;-72
2023/04/17 09:20:47;;;;;;;10.60;6.90;;;;;;;;;;5026838;28;20111;-75
2023/04/17 09:23:45;;;;;;;10.95;6.60;;;;;;;;;;5039448;28;20108;-73
2023/04/17 09:26:32;;;;;;;9.20;5.93;;;;;;;;;;5026784;28;20420;-73
2023/04/17 09:29:17;;;;;;;11.13;6.65;;;;;;;;;;5048649;28;20372;-74
2023/04/17 09:32:12;;;;;;;9.50;6.13;;;;;;;;;;5037787;28;20031;-75
2023/04/17 09:34:59;;;;;;;12.98;7.18;;;;;;;;;;5044827;28;20063;-73
2023/04/17 09:37:44;;;;;;;10.18;5.93;;;;;;;;;;5017928;28;20120;-75
2023/04/17 09:40:40;;;;;;;8.43;5.20;;;;;;;;;;5035828;28;20079;-80
2023/04/17 09:43:39;;;;;;;9.48;5.55;;;;;;;;;;5050248;28;20028;-74
2023/04/17 09:46:36;;;;;;;9.35;5.82;;;;;;;;;;5036816;28;20028;-73
2023/04/17 09:49:41;;;;;;;11.07;7.25;;;;;;;;;;5019145;28;20642;-73
2023/04/17 09:52:27;;;;;;;9.57;6.55;;;;;;;;;;5016625;28;20025;-74
2023/04/17 09:55:13;;;;;;;9.63;6.53;;;;;;;;;;5043144;28;20032;-74
2023/04/17 09:58:03;;;;;;;10.30;6.22;;;;;;;;;;5050990;28;20086;-73
2023/04/17 10:00:48;;;;;;;9.30;5.80;;;;;;;;;;5024930;28;20361;-80
2023/04/17 10:03:34;;;;;;;8.85;5.75;;;;;;;;;;5048734;28;20037;-77
2023/04/17 10:06:19;;;;;;;7.53;5.22;;;;;;;;;;5051327;28;20033;-79
2023/04/17 10:09:04;;;;;;;8.30;5.20;;;;;;;;;;5025200;28;20075;-78
2023/04/17 10:11:50;;;;;;;8.30;5.38;;;;;;;;;;5042216;28;20028;-79
2023/04/17 10:14:39;;;;;;;8.30;5.03;;;;;;;;;;5044161;28;20037;-79
2023/04/17 10:17:25;;;;;;;9.57;5.57;;;;;;;;;;5049847;28;20021;-79
2023/04/17 10:20:18;;;;;;;8.40;5.35;;;;;;;;;;5024080;28;20038;-74
2023/04/17 10:23:24;;;;;;;9.23;5.03;;;;;;;;;;5037082;28;20380;-72
2023/04/17 10:26:33;;;;;;;8.38;4.93;;;;;;;;;;5027002;28;20041;-74
2023/04/17 10:29:38;;;;;;;7.75;4.93;;;;;;;;;;5033475;28;20029;-73
2023/04/17 10:32:24;;;;;;;10.32;6.47;;;;;;;;;;5040441;28;20071;-71
2023/04/17 10:35:16;;;;;;;9.70;5.88;;;;;;;;;;5036820;28;20032;-74
2023/04/17 10:38:02;;;;;;;8.20;5.80;;;;;;;;;;5035921;28;20045;-73
2023/04/17 10:40:49;;;;;;;8.00;5.15;;;;;;;;;;5023998;28;20040;-71
2023/04/17 10:43:38;;;;;;;8.00;5.55;;;;;;;;;;5024355;28;20029;-73
2023/04/17 10:46:24;;;;;;;7.57;4.45;;;;;;;;;;5048935;28;20021;-72
2023/04/17 10:49:09;;;;;;;17.75;6.35;;;;;;;;;;5020303;28;20095;-71
2023/04/17 10:51:55;;;;;;;9.18;5.60;;;;;;;;;;5021846;28;20100;-74
2023/04/17 10:55:00;;;;;;;8.30;5.07;;;;;;;;;;5033480;28;20025;-74
2023/04/17 10:57:57;;;;;;;7.57;4.88;;;;;;;;;;5036228;28;20128;-74
2023/04/17 11:00:49;;;;;;;7.15;4.35;;;;;;;;;;5026362;28;20025;-74
2023/04/17 11:03:36;;;;;;;10.25;5.18;;;;;;;;;;5030461;28;20032;-74
2023/04/17 11:06:26;;;;;;;7.45;4.43;;;;;;;;;;5054325;28;20056;-75
2023/04/17 11:09:11;;;;;;;;;;;;;;;;;;5031709;28;20029;-74
2023/04/17 11:11:57;;;;;;;4.97;3.63;;;;;;;;;;5051976;28;20417;-76
2023/04/17 11:14:42;;;;;;;7.10;3.22;;;;;;;;;;5021246;28;20546;-82
2023/04/17 11:17:28;;;;;;;5.93;3.70;;;;;;;;;;5053630;28;20040;-81
2023/04/17 11:20:16;;;;;;;6.60;4.00;;;;;;;;;;5039865;28;20055;-78
2023/04/17 11:23:02;;;;;;;7.00;3.65;;;;;;;;;;5045812;28;20044;-78
2023/04/17 11:25:47;;;;;;;5.38;3.42;;;;;;;;;;5062302;28;20040;-81
2023/04/17 11:28:35;;;;;;;6.28;4.07;;;;;;;;;;5053375;28;20072;-74
2023/04/17 11:31:21;;;;;;;5.05;3.65;;;;;;;;;;5043469;28;20094;-70
2023/04/17 11:34:07;;;;;;;5.43;3.53;;;;;;;;;;5024573;28;20100;-79
2023/04/17 11:36:53;;;;;;;5.88;3.17;;;;;;;;;;5031957;28;20104;-77
2023/04/17 11:39:40;;;;;;;4.75;3.10;;;;;;;;;;5046133;28;20025;-79
2023/04/17 11:42:26;;;;;;;5.63;3.55;;;;;;;;;;5039438;28;20036;-77
2023/04/17 11:45:11;;;;;;;6.57;3.30;;;;;;;;;;5029791;28;20025;-79
2023/04/17 11:47:56;;;;;;;4.80;3.30;;;;;;;;;;5034422;28;20021;-77
2023/04/17 11:50:42;;;;;;;5.35;3.85;;;;;;;;;;5040127;28;20037;-76
2023/04/17 11:53:29;;;;;;;7.72;4.10;;;;;;;;;;5053379;28;20024;-73
2023/04/17 11:56:18;;;;;;;5.72;3.00;;;;;;;;;;5044148;28;20025;-74
2023/04/17 11:59:04;;;;;;;4.87;3.17;;;;;;;;;;5024611;28;20472;-73
2023/04/17 12:01:50;;;;;;;5.18;3.53;;;;;;;;;;5049967;28;20028;-73
2023/04/17 12:04:36;;;;;;;4.82;3.47;;;;;;;;;;5053217;28;20082;-74
2023/04/17 12:07:25;;;;;;;5.45;3.60;;;;;;;;;;5029677;28;20043;-73
2023/04/17 12:10:10;;;;;;;6.35;3.70;;;;;;;;;;5048644;28;20352;-74
2023/04/17 12:12:55;;;;;;;5.53;3.75;;;;;;;;;;5042312;28;20115;-73
2023/04/17 12:15:41;;;;;;;6.22;4.60;;;;;;;;;;5028618;28;20020;-72
2023/04/17 12:18:26;;;;;;;6.35;4.10;;;;;;;;;;5053894;28;20199;-73
2023/04/17 12:21:12;;;;;;;4.70;3.40;;;;;;;;;;5038793;28;20051;-73
2023/04/17 12:23:57;;;;;;;6.85;3.85;;;;;;;;;;5042488;28;20029;-73
2023/04/17 12:26:47;;;;;;;5.30;3.80;;;;;;;;;;5025860;28;20034;-80
2023/04/17 12:29:32;;;;;;;5.25;3.53;;;;;;;;;;5019090;28;20392;-72
2023/04/17 12:32:17;;;;;;;5.70;4.25;;;;;;;;;;5029818;28;20052;-73
2023/04/17 12:35:02;;;;;;;7.20;3.80;;;;;;;;;;5048183;28;20107;-75
2023/04/17 12:37:50;;;;;;;6.85;3.70;;;;;;;;;;5017665;28;20076;-76
2023/04/17 12:40:35;;;;;;;8.18;3.80;;;;;;;;;;5024780;28;20127;-74
2023/04/17 12:43:20;;;;;;;6.55;4.20;;;;;;;;;;5032296;28;20025;-79
2023/04/17 12:46:05;;;;;;;6.18;3.95;;;;;;;;;;5047956;28;20717;-75
2023/04/17 12:48:57;;;;;;;5.00;3.80;;;;;;;;;;5019443;28;20148;-74
2023/04/17 12:51:42;;;;;;;4.70;3.28;;;;;;;;;;5032154;28;20020;-75
2023/04/17 12:54:27;;;;;;;5.63;4.10;;;;;;;;;;5048747;28;20033;-75
2023/04/17 12:57:14;;;;;;;6.43;4.03;;;;;;;;;;5041276;28;20021;-75
2023/04/17 12:59:59;;;;;;;7.45;3.70;;;;;;;;;;5023978;28;20553;-75
2023/04/17 13:02:44;;;;;;;5.80;3.55;;;;;;;;;;5048410;28;20017;-73
2023/04/17 13:05:30;;;;;;;5.10;3.72;;;;;;;;;;5048238;28;20079;-73
2023/04/17 13:08:15;;;;;;;5.80;3.60;;;;;;;;;;5029826;28;20076;-72
2023/04/17 13:11:02;;;;;;;6.00;3.90;;;;;;;;;;5017289;28;20675;-72
2023/04/17 13:13:47;;;;;;;5.85;3.50;;;;;;;;;;5044400;28;20475;-73
2023/04/17 13:16:33;;;;;;;7.45;3.83;;;;;;;;;;5030096;28;20051;-73
2023/04/17 13:19:18;;;;;;;6.38;4.03;;;;;;;;;;5032244;28;20013;-74
2023/04/17 13:22:03;;;;;;;5.65;3.53;;;;;;;;;;5047752;28;20052;-76
2023/04/17 13:24:49;;;;;;;8.30;3.83;;;;;;;;;;5033562;28;20045;-71
2023/04/17 13:27:34;;;;;;;5.13;3.03;;;;;;;;;;5043750;28;20063;-71
2023/04/17 13:30:19;;;;;;;8.75;3.47;;;;;;;;;;5038060;28;20025;-71
2023/04/17 13:33:05;;;;;;;6.22;4.05;;;;;;;;;;5024909;28;20024;-71
2023/04/17 13:35:52;;;;;;;5.93;3.85;;;;;;;;;;5047211;28;20483;-73
2023/04/17 13:38:37;;;;;;;5.57;3.63;;;;;;;;;;5034702;28;20158;-72
2023/04/17 13:41:22;;;;;;;6.28;3.42;;;;;;;;;;5047142;28;20032;-80
2023/04/17 13:44:08;;;;;;;5.57;3.85;;;;;;;;;;5025927;28;20497;-79
2023/04/17 13:46:53;;;;;;;5.75;3.55;;;;;;;;;;5047571;28;20101;-80
2023/04/17 13:49:39;;;;;;;8.80;3.70;;;;;;;;;;5032365;28;20044;-79
2023/04/17 13:52:24;;;;;;;6.68;4.00;;;;;;;;;;5030324;28;20077;-79
2023/04/17 13:55:13;;;;;;;7.70;4.30;;;;;;;;;;5033146;28;20082;-79
2023/04/17 13:57:58;;;;;;;8.60;4.18;;;;;;;;;;5026634;28;20109;-72
2023/04/17 14:00:44;;;;;;;7.97;4.53;;;;;;;;;;5018806;28;20032;-76
2023/04/17 14:03:29;;;;;;;6.00;3.13;;;;;;;;;;5047012;28;20032;-77
2023/04/17 14:06:16;;;;;;;7.47;3.92;;;;;;;;;;5016966;28;20029;-77
2023/04/17 14:09:02;;;;;;;6.72;4.13;;;;;;;;;;5038067;28;20036;-78
2023/04/17 14:11:47;;;;;;;5.85;3.70;;;;;;;;;;5049133;28;20060;-78
2023/04/17 14:14:32;;;;;;;6.57;3.72;;;;;;;;;;5032797;28;20045;-74
2023/04/17 14:17:17;;;;;;;6.45;4.13;;;;;;;;;;5048573;28;20476;-73
2023/04/17 14:20:03;;;;;;;6.25;3.75;;;;;;;;;;5028678;28;20040;-72
2023/04/17 14:22:48;;;;;;;5.28;3.50;;;;;;;;;;5012791;28;20100;-74
2023/04/17 14:25:33;;;;;;;5.90;4.00;;;;;;;;;;5050584;28;20057;-71
2023/04/17 14:28:20;;;;;;;9.07;4.60;;;;;;;;;;5043400;28;20171;-72
2023/04/17 14:31:05;;;;;;;8.93;4.07;;;;;;;;;;5040410;28;20029;-73
2023/04/17 14:33:50;;;;;;;8.73;3.83;;;;;;;;;;5050449;28;20017;-79
2023/04/17 14:36:36;;;;;;;6.50;4.00;;;;;;;;;;5044555;28;20087;-80
2023/04/17 14:39:21;;;;;;;6.22;3.67;;;;;;;;;;5029487;28;20025;-81
2023/04/17 14:42:06;;;;;;;7.05;4.53;;;;;;;;;;5013590;28;20028;-79
2023/04/17 14:44:51;;;;;;;5.93;3.28;;;;;;;;;;5022470;28;20067;-82
2023/04/17 14:47:37;;;;;;;6.00;3.83;;;;;;;;;;5043796;28;20392;-79
2023/04/17 14:50:22;;;;;;;6.18;3.75;;;;;;;;;;5027307;28;20539;-80
2023/04/17 14:53:07;;;;;;;5.03;3.10;;;;;;;;;;5030164;28;20071;-77
2023/04/17 14:55:52;;;;;;;5.18;3.25;;;;;;;;;;5049796;28;20608;-72
2023/04/17 14:58:38;;;;;;;6.03;3.35;;;;;;;;;;5043062;28;20110;-74
2023/04/17 15:01:23;;;;;;;6.95;3.45;;;;;;;;;;5031268;28;20040;-73
2023/04/17 15:04:08;;;;;;;5.90;3.60;;;;;;;;;;5037472;28;20380;-73
2023/04/17 15:06:53;;;;;;;9.27;4.15;;;;;;;;;;5048778;28;20025;-72
2023/04/17 15:09:39;;;;;;;5.03;3.25;;;;;;;;;;5019691;28;20120;-73
2023/04/17 15:12:24;;;;;;;6.78;3.30;;;;;;;;;;5049895;28;20598;-74
2023/04/17 15:15:09;;;;;;;6.65;3.78;;;;;;;;;;5018672;28;20090;-73
2023/04/17 15:17:54;;;;;;;5.60;3.67;;;;;;;;;;5038218;28;20051;-73
2023/04/17 15:20:40;;;;;;;6.35;3.33;;;;;;;;;;5043666;28;20032;-72
2023/04/17 15:23:27;;;;;;;5.55;4.05;;;;;;;;;;5029368;28;20036;-73
2023/04/17 15:26:12;;;;;;;5.53;3.38;;;;;;;;;;5032323;28;20077;-74
2023/04/17 15:28:59;;;;;;;5.75;3.22;;;;;;;;;;5046328;28;20424;-78
2023/04/17 15:31:45;;;;;;;7.13;3.70;;;;;;;;;;5004943;28;20026;-77
2023/04/17 15:34:31;;;;;;;4.78;3.33;;;;;;;;;;5021558;28;20025;-78
2023/04/17 15:37:16;;;;;;;6.32;3.10;;;;;;;;;;5038273;28;20033;-77
2023/04/17 15:40:02;;;;;;;5.50;3.70;;;;;;;;;;5040763;28;20105;-78
2023/04/17 15:42:47;;;;;;;5.30;3.58;;;;;;;;;;5048825;28;20484;-78
2023/04/17 15:45:32;;;;;;;5.65;3.53;;;;;;;;;;5036766;28;20028;-76
2023/04/17 15:48:18;;;;;;;4.95;3.20;;;;;;;;;;5040424;28;20115;-79
2023/04/17 15:51:03;;;;;;;6.03;3.60;;;;;;;;;;5041099;28;20068;-74
2023/04/17 15:53:48;;;;;;;5.38;3.75;;;;;;;;;;5036420;28;20024;-73
2023/04/17 15:56:33;;;;;;;5.45;3.53;;;;;;;;;;5048275;28;20063;-73
2023/04/17 15:59:19;;;;;;;5.88;3.63;;;;;;;;;;5041560;28;20029;-72
2023/04/17 16:02:05;;;;;;;4.68;3.28;;;;;;;;;;5047783;28;20419;-72
2023/04/17 16:04:50;;;;;;;5.07;3.20;;;;;;;;;;5049299;28;20123;-72
2023/04/17 16:07:35;;;;;;;5.75;3.97;;;;;;;;;;5039918;28;20029;-75
2023/04/17 16:10:21;;;;;;;5.95;3.60;;;;;;;;;;5023138;28;20119;-73
2023/04/17 16:13:06;;;;;;;4.93;3.38;;;;;;;;;;5037266;28;20185;-73
2023/04/17 16:15:52;;;;;;;5.85;3.20;;;;;;;;;;5034288;28;20033;-74
2023/04/17 16:18:37;;;;;;;5.13;3.05;;;;;;;;;;5048885;28;20452;-73
2023/04/17 16:21:22;;;;;;;5.97;3.45;;;;;;;;;;5043144;28;20025;-73
2023/04/17 16:24:07;;;;;;;5.38;3.33;;;;;;;;;;5046977;28;20017;-78